createdAt,value
2018-12-27T00:00:06.000Z,24.30
2018-12-27T00:02:33.691Z,24.30
2018-12-27T00:05:01.451Z,25.40
2018-12-27T00:07:29.149Z,26.73
2018-12-27T00:09:56.784Z,25.17
2018-12-27T00:12:24.479Z,25.10
2018-12-27T00:14:52.199Z,27.75
2018-12-27T00:17:19.881Z,27.90
2018-12-27T00:19:47.592Z,27.80
2018-12-27T00:22:15.297Z,31.68
2018-12-27T00:24:43.024Z,47.15
2018-12-27T00:27:10.739Z,42.70
2018-12-27T00:29:38.431Z,36.13
2018-12-27T00:32:06.150Z,32.55
2018-12-27T00:34:33.893Z,33.60
2018-12-27T00:37:01.612Z,32.03
2018-12-27T00:39:29.287Z,25.37
2018-12-27T00:41:56.997Z,34.97
2018-12-27T00:44:24.705Z,31.82
2018-12-27T00:46:52.370Z,48.40
2018-12-27T00:49:20.088Z,43.28
2018-12-27T00:51:47.759Z,36.95
2018-12-27T00:54:15.520Z,33.10
2018-12-27T00:56:43.189Z,31.70
2018-12-27T00:59:10.895Z,28.15
2018-12-27T01:01:38.548Z,27.05
2018-12-27T01:04:06.254Z,25.57
2018-12-27T01:06:33.987Z,30.20
2018-12-27T01:09:01.666Z,35.55
2018-12-27T01:11:29.363Z,38.57
2018-12-27T01:13:57.068Z,36.38
2018-12-27T01:16:24.882Z,31.62
2018-12-27T01:18:52.555Z,34.03
2018-12-27T01:21:20.311Z,35.13
2018-12-27T01:23:47.964Z,34.55
2018-12-27T01:26:15.679Z,36.42
2018-12-27T01:28:43.403Z,34.67
2018-12-27T01:31:11.091Z,30.72
2018-12-27T01:33:38.815Z,28.30
2018-12-27T01:36:06.502Z,26.23
2018-12-27T01:38:34.276Z,36.17
2018-12-27T01:41:02.041Z,32.83
2018-12-27T01:43:31.035Z,39.30
2018-12-27T01:45:58.761Z,36.90
2018-12-27T01:48:26.427Z,35.75
2018-12-27T01:50:54.110Z,33.17
2018-12-27T01:53:21.833Z,35.60
2018-12-27T01:55:49.524Z,29.98
2018-12-27T01:58:17.227Z,34.43
2018-12-27T02:00:44.907Z,26.17
2018-12-27T02:03:12.629Z,23.77
2018-12-27T02:05:40.346Z,23.80
2018-12-27T02:08:08.086Z,23.75
2018-12-27T02:10:35.735Z,24.85
2018-12-27T02:13:03.455Z,26.60
2018-12-27T02:15:31.160Z,25.40
2018-12-27T02:17:58.866Z,26.45
2018-12-27T02:20:28.728Z,26.48
2018-12-27T02:22:56.407Z,27.07
2018-12-27T02:25:24.097Z,31.87
2018-12-27T02:27:51.768Z,32.73
2018-12-27T02:30:19.437Z,25.40
2018-12-27T02:32:47.148Z,24.35
2018-12-27T02:35:14.951Z,26.82
2018-12-27T02:37:42.608Z,21.80
2018-12-27T02:40:10.303Z,21.62
2018-12-27T02:42:38.000Z,24.00
2018-12-27T02:45:05.699Z,24.07
2018-12-27T02:47:33.435Z,23.17
2018-12-27T02:50:01.116Z,20.80
2018-12-27T02:52:28.744Z,21.65
2018-12-27T02:54:56.432Z,23.87
2018-12-27T02:57:24.164Z,22.95
2018-12-27T03:04:46.079Z,26.70
2018-12-27T03:07:13.809Z,27.00
2018-12-27T03:09:41.487Z,29.67
2018-12-27T03:12:09.252Z,44.98
2018-12-27T03:14:36.938Z,35.38
2018-12-27T03:17:04.823Z,35.17
2018-12-27T03:19:32.500Z,34.38
2018-12-27T03:22:00.445Z,35.45
2018-12-27T03:24:28.144Z,34.60
2018-12-27T03:26:55.970Z,34.30
2018-12-27T03:29:23.716Z,38.60
2018-12-27T03:31:51.463Z,37.77
2018-12-27T03:34:19.321Z,37.78
2018-12-27T03:36:47.026Z,35.88
2018-12-27T03:39:14.734Z,43.30
2018-12-27T03:41:42.637Z,41.05
2018-12-27T03:44:10.479Z,32.48
2018-12-27T03:46:38.223Z,35.83
2018-12-27T03:49:06.081Z,37.88
2018-12-27T03:51:33.805Z,41.68
2018-12-27T03:54:01.530Z,35.70
2018-12-27T03:56:29.434Z,36.10
2018-12-27T03:58:57.262Z,34.18
2018-12-27T04:01:25.017Z,30.68
2018-12-27T04:04:01.013Z,33.35
2018-12-27T04:06:22.311Z,33.00
2018-12-27T04:08:50.044Z,29.23
2018-12-27T04:11:17.757Z,28.53
2018-12-27T04:13:45.452Z,26.57
2018-12-27T04:16:13.125Z,29.10
2018-12-27T04:18:40.846Z,25.77
2018-12-27T04:21:08.610Z,26.35
2018-12-27T04:23:36.480Z,30.20
2018-12-27T04:26:04.287Z,30.03
2018-12-27T04:28:32.006Z,30.90
2018-12-27T04:30:59.957Z,34.38
2018-12-27T04:33:28.460Z,33.50
2018-12-27T04:35:56.797Z,33.98
2018-12-27T04:38:24.480Z,34.03
2018-12-27T04:40:52.219Z,36.58
2018-12-27T04:43:21.085Z,31.80
2018-12-27T04:45:48.930Z,31.27
2018-12-27T04:48:42.846Z,32.17
2018-12-27T04:51:41.914Z,31.20
2018-12-27T04:54:34.687Z,30.62
2018-12-27T04:57:36.166Z,37.50
2018-12-27T05:00:28.854Z,32.80
2018-12-27T05:03:27.115Z,34.55
2018-12-27T05:06:28.792Z,28.05
2018-12-27T05:09:28.386Z,29.87
2018-12-27T05:12:23.240Z,33.95
2018-12-27T05:15:17.029Z,30.77
2018-12-27T05:18:12.505Z,27.52
2018-12-27T05:21:04.080Z,27.40
2018-12-27T05:23:56.341Z,26.62
2018-12-27T05:26:50.179Z,26.50
2018-12-27T05:29:51.896Z,30.08
2018-12-27T05:32:42.695Z,27.00
2018-12-27T05:35:40.581Z,26.05
2018-12-27T05:38:36.061Z,28.10
2018-12-27T05:41:32.556Z,29.48
2018-12-27T05:44:24.912Z,29.60
2018-12-27T05:47:16.178Z,32.35
2018-12-27T05:50:07.590Z,34.10
2018-12-27T05:53:12.062Z,38.75
2018-12-27T05:56:04.560Z,41.58
2018-12-27T05:58:52.920Z,39.90
2018-12-27T06:01:48.188Z,32.73
2018-12-27T06:04:36.352Z,34.73
2018-12-27T06:07:21.311Z,35.35
2018-12-27T06:10:11.537Z,37.40
2018-12-27T06:13:11.596Z,39.25
2018-12-27T06:15:59.199Z,33.60
2018-12-27T06:18:41.092Z,33.33
2018-12-27T06:21:15.567Z,35.25
2018-12-27T06:23:49.770Z,38.80
2018-12-27T06:26:23.997Z,36.63
2018-12-27T06:28:58.092Z,39.63
2018-12-27T06:31:32.490Z,42.73
2018-12-27T06:34:06.653Z,38.60
2018-12-27T06:36:41.292Z,40.28
2018-12-27T06:39:09.226Z,40.00
2018-12-27T06:41:36.903Z,43.10
2018-12-27T06:44:04.610Z,38.83
2018-12-27T06:46:32.329Z,32.30
2018-12-27T06:49:00.201Z,33.53
2018-12-27T06:51:27.934Z,32.30
2018-12-27T06:53:55.646Z,34.00
2018-12-27T06:56:23.413Z,33.98
2018-12-27T06:58:51.124Z,34.83
2018-12-27T07:01:18.783Z,34.20
2018-12-27T07:03:46.495Z,44.23
2018-12-27T07:06:14.214Z,39.23
2018-12-27T07:08:41.929Z,35.60
2018-12-27T07:11:09.645Z,35.17
2018-12-27T07:13:37.364Z,33.90
2018-12-27T07:16:05.111Z,31.85
2018-12-27T07:18:32.819Z,32.08
2018-12-27T07:21:00.551Z,36.42
2018-12-27T07:23:28.256Z,35.45
2018-12-27T07:25:55.996Z,32.65
2018-12-27T07:28:23.644Z,33.65
2018-12-27T07:30:51.351Z,32.05
2018-12-27T07:33:19.039Z,27.95
2018-12-27T07:35:46.775Z,30.30
2018-12-27T07:38:14.442Z,28.23
2018-12-27T07:40:42.172Z,27.85
2018-12-27T07:43:09.844Z,25.57
2018-12-27T07:45:37.526Z,23.95
2018-12-27T07:48:05.243Z,25.85
2018-12-27T07:50:32.986Z,23.42
2018-12-27T07:53:00.708Z,25.82
2018-12-27T07:55:28.422Z,24.20
2018-12-27T07:57:56.200Z,25.20
2018-12-27T08:00:23.931Z,25.00
2018-12-27T08:02:51.763Z,23.67
2018-12-27T08:05:19.446Z,25.50
2018-12-27T08:07:47.184Z,25.03
2018-12-27T08:10:14.865Z,17.90
2018-12-27T08:12:42.596Z,18.92
2018-12-27T08:15:10.229Z,18.98
2018-12-27T08:17:37.872Z,18.52
2018-12-27T08:20:05.966Z,19.07
2018-12-27T08:22:33.655Z,19.30
2018-12-27T08:25:01.360Z,19.12
2018-12-27T08:27:29.082Z,20.50
2018-12-27T08:29:56.772Z,18.95
2018-12-27T08:32:24.457Z,17.50
2018-12-27T08:34:52.200Z,17.57
2018-12-27T08:37:19.883Z,18.05
2018-12-27T08:39:47.597Z,16.82
2018-12-27T08:42:15.292Z,17.98
2018-12-27T08:44:43.024Z,18.23
2018-12-27T08:47:10.740Z,18.48
2018-12-27T08:49:38.437Z,16.35
2018-12-27T08:52:06.118Z,16.00
2018-12-27T08:54:33.811Z,15.25
2018-12-27T08:57:01.511Z,15.97
2018-12-27T08:59:29.291Z,15.90
2018-12-27T09:01:56.979Z,15.35
2018-12-27T09:04:24.661Z,15.40
2018-12-27T09:06:52.416Z,14.10
2018-12-27T09:09:20.108Z,13.70
2018-12-27T09:11:47.839Z,13.48
2018-12-27T09:14:15.508Z,13.80
2018-12-27T09:16:43.191Z,13.83
2018-12-27T09:19:10.867Z,14.40
2018-12-27T09:21:38.555Z,13.83
2018-12-27T09:24:06.348Z,15.08
2018-12-27T09:26:34.043Z,14.30
2018-12-27T09:29:01.706Z,15.23
2018-12-27T09:31:29.467Z,14.13
2018-12-27T09:33:57.119Z,14.20
2018-12-27T09:36:24.804Z,14.70
2018-12-27T09:38:52.497Z,14.83
2018-12-27T09:41:20.193Z,14.90
2018-12-27T09:43:47.943Z,14.83
2018-12-27T09:46:15.611Z,15.68
2018-12-27T09:48:43.299Z,15.25
2018-12-27T09:51:10.955Z,15.58
2018-12-27T09:53:38.678Z,15.72
2018-12-27T09:56:06.452Z,16.73
2018-12-27T09:58:34.145Z,16.65
2018-12-27T10:01:01.787Z,15.43
2018-12-27T10:03:29.524Z,15.40
2018-12-27T10:05:57.281Z,16.45
2018-12-27T10:08:24.936Z,16.85
2018-12-27T10:10:52.644Z,16.20
2018-12-27T10:13:20.360Z,16.95
2018-12-27T10:15:48.057Z,16.90
2018-12-27T10:18:15.752Z,17.35
2018-12-27T10:20:43.457Z,15.60
2018-12-27T10:23:11.161Z,16.57
2018-12-27T10:25:38.964Z,16.93
2018-12-27T10:28:06.664Z,17.15
2018-12-27T10:30:34.375Z,17.30
2018-12-27T10:33:02.071Z,18.60
2018-12-27T10:35:29.833Z,18.00
2018-12-27T10:37:57.492Z,18.12
2018-12-27T10:40:25.168Z,18.47
2018-12-27T10:42:52.875Z,18.17
2018-12-27T10:45:20.575Z,18.47
2018-12-27T10:47:48.328Z,19.55
2018-12-27T10:50:15.992Z,21.48
2018-12-27T10:52:43.696Z,21.20
2018-12-27T10:55:11.411Z,18.98
2018-12-27T10:57:39.103Z,17.92
2018-12-27T11:00:08.787Z,18.50
2018-12-27T11:02:36.535Z,18.70
2018-12-27T11:05:04.373Z,18.65
2018-12-27T11:07:32.055Z,20.60
2018-12-27T11:09:59.729Z,18.87
2018-12-27T11:12:27.463Z,18.55
2018-12-27T11:14:55.175Z,18.30
2018-12-27T11:17:22.842Z,19.52
2018-12-27T11:19:50.576Z,39.42
2018-12-27T11:22:18.256Z,20.35
2018-12-27T11:24:45.939Z,20.08
2018-12-27T11:27:13.639Z,20.65
2018-12-27T11:29:41.306Z,21.52
2018-12-27T11:32:08.972Z,20.77
2018-12-27T11:34:36.680Z,19.75
2018-12-27T11:37:04.379Z,20.17
2018-12-27T11:39:32.062Z,21.20
2018-12-27T11:41:59.708Z,19.77
2018-12-27T11:44:27.396Z,19.65
2018-12-27T11:46:55.076Z,19.73
2018-12-27T11:49:22.739Z,20.77
2018-12-27T11:51:50.447Z,19.92
2018-12-27T11:54:18.089Z,22.70
2018-12-27T11:56:45.754Z,23.05
2018-12-27T11:59:13.455Z,22.55
2018-12-27T12:01:41.123Z,23.20
2018-12-27T12:04:08.795Z,22.80
2018-12-27T12:06:36.521Z,20.60
2018-12-27T12:09:06.304Z,18.35
2018-12-27T12:11:33.972Z,20.10
2018-12-27T12:14:01.629Z,20.30
2018-12-27T12:16:29.323Z,21.23
2018-12-27T12:18:56.971Z,20.70
2018-12-27T12:21:24.672Z,18.77
2018-12-27T12:23:52.308Z,21.40
2018-12-27T12:26:19.996Z,21.62
2018-12-27T12:28:47.679Z,23.40
2018-12-27T12:31:15.347Z,24.95
2018-12-27T12:33:43.046Z,27.80
2018-12-27T12:36:11.128Z,36.33
2018-12-27T12:38:39.468Z,35.98
2018-12-27T12:41:07.131Z,37.50
2018-12-27T12:43:34.807Z,35.43
2018-12-27T12:46:02.459Z,35.28
2018-12-27T12:48:30.143Z,35.17
2018-12-27T12:50:57.796Z,33.92
2018-12-27T12:53:25.503Z,31.17
2018-12-27T12:55:53.154Z,28.80
2018-12-27T12:58:20.856Z,31.55
2018-12-27T13:00:48.538Z,30.02
2018-12-27T13:03:16.192Z,28.50
2018-12-27T13:05:43.900Z,27.13
2018-12-27T13:08:11.540Z,27.48
2018-12-27T13:10:39.255Z,27.32
2018-12-27T13:13:06.971Z,27.00
2018-12-27T13:15:34.655Z,26.95
2018-12-27T13:18:02.336Z,26.15
2018-12-27T13:20:30.044Z,27.27
2018-12-27T13:22:57.715Z,27.87
2018-12-27T13:25:25.379Z,28.90
2018-12-27T13:27:53.035Z,28.17
2018-12-27T13:30:20.742Z,30.25
2018-12-27T13:32:48.412Z,27.05
2018-12-27T13:35:16.096Z,25.90
2018-12-27T13:37:43.783Z,24.80
2018-12-27T13:40:11.450Z,25.72
2018-12-27T13:42:39.393Z,27.45
2018-12-27T13:45:07.130Z,26.12
2018-12-27T13:47:34.828Z,28.45
2018-12-27T13:50:02.603Z,27.87
2018-12-27T13:52:30.280Z,29.55
2018-12-27T13:54:57.943Z,31.15
2018-12-27T13:57:25.642Z,33.08
2018-12-27T13:59:53.320Z,35.75
2018-12-27T14:02:21.011Z,33.00
2018-12-27T14:04:48.688Z,33.50
2018-12-27T14:07:16.390Z,33.15
2018-12-27T14:09:44.103Z,32.25
2018-12-27T14:12:11.744Z,33.13
2018-12-27T14:14:39.423Z,33.10
2018-12-27T14:17:07.237Z,35.38
2018-12-27T14:19:35.355Z,33.70
2018-12-27T14:22:03.003Z,34.70
2018-12-27T14:24:30.759Z,33.65
2018-12-27T14:26:58.346Z,33.90
2018-12-27T14:29:26.012Z,35.78
2018-12-27T14:31:53.680Z,34.20
2018-12-27T14:34:21.355Z,34.20
2018-12-27T14:36:49.002Z,35.50
2018-12-27T14:39:16.698Z,31.62
2018-12-27T14:41:44.347Z,30.95
2018-12-27T14:44:12.030Z,30.77
2018-12-27T14:46:39.713Z,29.60
2018-12-27T14:49:07.356Z,29.18
2018-12-27T14:51:35.044Z,28.42
2018-12-27T14:54:02.676Z,28.40
2018-12-27T14:56:30.331Z,30.08
2018-12-27T14:58:58.015Z,29.87
2018-12-27T15:01:25.759Z,29.67
2018-12-27T15:03:53.412Z,30.80
2018-12-27T15:06:21.087Z,32.67
2018-12-27T15:08:48.741Z,33.45
2018-12-27T15:11:16.420Z,32.38
2018-12-27T15:13:44.136Z,32.60
2018-12-27T15:16:11.856Z,32.17
2018-12-27T15:18:39.527Z,30.90
2018-12-27T15:21:07.176Z,35.00
2018-12-27T15:23:34.879Z,33.30
2018-12-27T15:26:02.538Z,34.10
2018-12-27T15:28:30.289Z,37.38
2018-12-27T15:30:57.944Z,36.83
2018-12-27T15:33:25.631Z,36.90
2018-12-27T15:35:53.287Z,38.08
2018-12-27T15:38:20.954Z,38.15
2018-12-27T15:40:48.620Z,39.63
2018-12-27T15:43:16.302Z,39.00
2018-12-27T15:45:43.995Z,40.28
2018-12-27T15:48:11.674Z,40.45
2018-12-27T15:50:39.624Z,41.42
2018-12-27T15:53:07.329Z,38.75
2018-12-27T15:55:35.037Z,39.67
2018-12-27T15:58:02.722Z,39.45
2018-12-27T16:00:30.576Z,38.25
2018-12-27T16:02:58.227Z,38.73
2018-12-27T16:05:25.941Z,36.98
2018-12-27T16:07:53.598Z,38.70
2018-12-27T16:10:21.312Z,39.75
2018-12-27T16:12:48.985Z,39.88
2018-12-27T16:15:16.687Z,38.80
2018-12-27T16:17:44.392Z,38.83
2018-12-27T16:20:12.094Z,41.92
2018-12-27T16:22:39.772Z,40.10
2018-12-27T16:25:07.454Z,46.37
2018-12-27T16:27:35.122Z,49.18
2018-12-27T16:30:02.907Z,48.83
2018-12-27T16:32:30.603Z,49.30
2018-12-27T16:34:58.288Z,46.30
2018-12-27T16:37:26.048Z,48.78
2018-12-27T16:39:53.708Z,44.85
2018-12-27T16:42:21.910Z,40.75
2018-12-27T16:44:49.872Z,42.03
2018-12-27T16:47:17.617Z,42.23
2018-12-27T16:49:45.288Z,42.08
2018-12-27T16:52:12.988Z,39.90
2018-12-27T16:54:40.643Z,38.63
2018-12-27T16:57:08.355Z,39.15
2018-12-27T16:59:36.059Z,38.15
2018-12-27T17:02:03.993Z,39.73
2018-12-27T17:04:31.621Z,39.13
2018-12-27T17:06:59.659Z,38.80
2018-12-27T17:09:27.365Z,37.00
2018-12-27T17:11:55.031Z,35.50
2018-12-27T17:14:22.819Z,35.28
2018-12-27T17:16:50.595Z,34.67
2018-12-27T17:19:18.414Z,35.85
2018-12-27T17:21:46.212Z,34.55
2018-12-27T17:24:13.940Z,34.53
2018-12-27T17:26:41.755Z,34.78
2018-12-27T17:29:09.577Z,35.90
2018-12-27T17:31:37.356Z,36.75
2018-12-27T17:34:05.018Z,39.33
2018-12-27T17:36:33.298Z,40.03
2018-12-27T17:39:01.079Z,39.95
2018-12-27T17:41:28.766Z,41.02
2018-12-27T17:43:56.729Z,41.98
2018-12-27T17:46:24.514Z,45.15
2018-12-27T17:48:52.196Z,42.98
2018-12-27T17:51:19.981Z,42.98
2018-12-27T17:53:47.685Z,43.45
2018-12-27T17:56:15.451Z,42.47
2018-12-27T17:58:43.599Z,42.00
2018-12-27T18:01:11.336Z,43.95
2018-12-27T18:03:39.184Z,44.95
2018-12-27T18:06:06.944Z,46.20
2018-12-27T18:08:34.635Z,43.30
2018-12-27T18:11:02.401Z,38.23
2018-12-27T18:13:30.210Z,38.35
2018-12-27T18:15:57.921Z,39.65
2018-12-27T18:18:25.623Z,38.50
2018-12-27T18:20:53.264Z,39.75
2018-12-27T18:23:20.956Z,38.08
2018-12-27T18:25:48.625Z,38.88
2018-12-27T18:28:16.456Z,41.68
2018-12-27T18:30:44.113Z,38.23
2018-12-27T18:33:11.811Z,43.40
2018-12-27T18:35:39.468Z,44.25
2018-12-27T18:38:07.172Z,45.25
2018-12-27T18:40:34.845Z,41.42
2018-12-27T18:43:02.520Z,42.00
2018-12-27T18:45:30.199Z,38.98
2018-12-27T18:47:57.888Z,39.48
2018-12-27T18:50:25.701Z,39.50
2018-12-27T18:52:53.376Z,40.95
2018-12-27T18:55:21.052Z,40.92
2018-12-27T18:57:48.723Z,37.58
2018-12-27T19:00:16.396Z,39.78
2018-12-27T19:02:44.041Z,39.35
2018-12-27T19:05:11.767Z,39.25
2018-12-27T19:07:44.807Z,39.73
2018-12-27T19:10:09.013Z,36.98
2018-12-27T19:13:04.957Z,41.45
2018-12-27T19:15:36.102Z,41.33
2018-12-27T19:18:18.474Z,44.80
2018-12-27T19:20:53.649Z,41.65
2018-12-27T19:23:21.644Z,39.42
2018-12-27T19:25:49.397Z,39.75
2018-12-27T19:28:17.101Z,37.53
2018-12-27T19:30:44.807Z,40.35
2018-12-27T19:33:12.760Z,35.35
2018-12-27T19:35:40.472Z,37.08
2018-12-27T19:38:08.549Z,36.33
2018-12-27T19:40:36.804Z,36.70
2018-12-27T19:43:05.283Z,37.10
2018-12-27T19:45:33.712Z,39.90
2018-12-27T19:48:01.954Z,38.38
2018-12-27T19:50:30.190Z,38.70
2018-12-27T19:52:58.208Z,38.95
2018-12-27T19:55:26.399Z,37.55
2018-12-27T19:57:54.703Z,38.08
2018-12-27T20:00:25.060Z,38.73
2018-12-27T20:02:52.980Z,37.50
2018-12-27T20:05:21.048Z,36.55
2018-12-27T20:07:49.211Z,39.88
2018-12-27T20:10:19.507Z,41.75
2018-12-27T20:12:47.538Z,41.25
2018-12-27T20:15:15.588Z,44.55
2018-12-27T20:17:43.746Z,45.40
2018-12-27T20:20:12.781Z,39.15
2018-12-27T20:22:40.395Z,38.13
2018-12-27T20:25:08.105Z,41.23
2018-12-27T20:27:35.792Z,44.50
2018-12-27T20:30:04.700Z,44.80
2018-12-27T20:32:32.382Z,43.70
2018-12-27T20:35:00.161Z,42.10
2018-12-27T20:37:27.775Z,42.43
2018-12-27T20:39:55.454Z,44.67
2018-12-27T20:42:23.125Z,50.98
2018-12-27T20:44:53.156Z,46.02
2018-12-27T20:47:20.847Z,43.08
2018-12-27T20:49:48.522Z,40.40
2018-12-27T20:52:16.281Z,37.30
2018-12-27T20:54:43.974Z,37.10
2018-12-27T20:57:11.678Z,36.25
2018-12-27T20:59:39.366Z,36.55
2018-12-27T21:02:07.087Z,36.83
2018-12-27T21:04:34.793Z,36.70
2018-12-27T21:07:02.497Z,36.50
2018-12-27T21:09:30.260Z,38.10
2018-12-27T21:11:57.991Z,38.10
2018-12-27T21:14:25.794Z,39.42
2018-12-27T21:16:53.527Z,36.60
2018-12-27T21:19:21.185Z,34.80
2018-12-27T21:21:48.904Z,36.60
2018-12-27T21:24:16.556Z,36.50
2018-12-27T21:26:44.240Z,37.53
2018-12-27T21:29:11.905Z,41.48
2018-12-27T21:31:39.880Z,42.95
2018-12-27T21:34:07.848Z,53.15
2018-12-27T21:36:35.572Z,41.47
2018-12-27T21:39:05.523Z,39.38
2018-12-27T21:41:33.228Z,38.30
2018-12-27T21:44:00.929Z,37.42
2018-12-27T21:46:28.633Z,36.60
2018-12-27T21:48:56.327Z,37.57
2018-12-27T21:51:24.038Z,36.20
2018-12-27T21:53:51.682Z,36.77
2018-12-27T21:56:19.375Z,37.23
2018-12-27T21:58:47.083Z,45.20
2018-12-27T22:01:14.860Z,45.65
2018-12-27T22:03:42.586Z,44.50
2018-12-27T22:06:10.282Z,41.00
2018-12-27T22:08:38.936Z,41.80
2018-12-27T22:11:06.647Z,42.30
2018-12-27T22:13:34.359Z,46.00
2018-12-27T22:16:02.080Z,49.85
2018-12-27T22:18:29.762Z,52.10
2018-12-27T22:20:57.451Z,45.12
2018-12-27T22:23:25.162Z,43.30
2018-12-27T22:25:52.890Z,41.50
2018-12-27T22:28:20.576Z,46.95
2018-12-27T22:30:48.340Z,42.30
2018-12-27T22:33:16.037Z,45.28
2018-12-27T22:35:43.724Z,43.00
2018-12-27T22:38:11.395Z,43.20
2018-12-27T22:40:39.134Z,47.25
2018-12-27T22:43:06.822Z,47.45
2018-12-27T22:45:34.535Z,48.75
2018-12-27T22:48:02.402Z,46.53
2018-12-27T22:50:30.065Z,45.60
2018-12-27T22:52:57.734Z,42.13
2018-12-27T22:55:25.464Z,43.28
2018-12-27T22:57:53.191Z,42.00
2018-12-27T23:00:36.098Z,40.65
2018-12-27T23:03:03.870Z,43.15
2018-12-27T23:05:31.605Z,46.15
2018-12-27T23:07:59.322Z,48.95
2018-12-27T23:10:26.998Z,44.00
2018-12-27T23:12:54.743Z,42.70
2018-12-27T23:15:22.423Z,42.70
2018-12-27T23:17:50.129Z,42.27
2018-12-27T23:20:18.065Z,41.25
2018-12-27T23:22:45.748Z,39.80
2018-12-27T23:25:13.528Z,40.08
2018-12-27T23:27:41.188Z,40.98
2018-12-27T23:30:08.922Z,39.27
2018-12-27T23:32:36.556Z,42.50
2018-12-27T23:35:04.526Z,42.95
2018-12-27T23:37:32.234Z,42.40
2018-12-27T23:39:59.955Z,45.83
2018-12-27T23:42:27.765Z,44.42
2018-12-27T23:44:55.467Z,42.95
2018-12-27T23:47:23.164Z,40.40
2018-12-27T23:49:50.869Z,39.35
2018-12-27T23:52:18.603Z,41.90
2018-12-27T23:54:46.327Z,41.13
2018-12-27T23:57:14.016Z,43.80
2018-12-27T23:59:41.738Z,41.83
